This is the latest recevied weather packets stored in our database for station/object VA7NEZ. If no packets are shown the sender has not sent any weather packets the latest 10 day(s).
| Time | Temp. | Humidity | Pressure | Rain* | Wind** | Luminosity | Snow |
|---|---|---|---|---|---|---|---|
| 1778238998 | 8.89° C | 68% | 1012.7 hPa | 0 mm | - | - | - |
| 1778238512 | 8.89° C | 63% | 1012.6 hPa | 0 mm | - | - | - |
| 1778237963 | 8.89° C | 64% | 1012.8 hPa | 0 mm | - | - | - |
| 1778237488 | 0° C | 100% | 1012.8 hPa | 0 mm | - | - | - |
| 1778236392 | 9.44° C | 62% | 1012.5 hPa | 0 mm | - | - | - |
| 1778235807 | 10° C | 60% | 1012.6 hPa | 0 mm | - | - | - |
| 1778235316 | 10° C | 60% | 1012.6 hPa | 0 mm | - | - | - |
| 1778234777 | 10° C | 59% | 1012.6 hPa | 0 mm | - | - | - |
| 1778234217 | 10° C | 60% | 1012.4 hPa | 0 mm | - | - | - |
| 1778233657 | 10.56° C | 60% | 1012.4 hPa | 0 mm | - | - | - |
| 1778233152 | 10.56° C | 61% | 1012.5 hPa | 0 mm | - | - | - |
| 1778232602 | 10.56° C | 61% | 1012.5 hPa | 0 mm | - | - | - |
| 1778232153 | 11.11° C | 58% | 1012.5 hPa | 0 mm | - | - | - |
| 1778232017 | 11.11° C | 58% | 1012.5 hPa | 0 mm | - | - | - |
| 1778231517 | 11.11° C | 60% | 1012.4 hPa | 0 mm | - | - | - |
| 1778230922 | 11.11° C | 57% | 1012.5 hPa | 0 mm | - | - | - |
| 1778230407 | 11.11° C | 57% | 1012.3 hPa | 0 mm | - | - | - |
| 1778229872 | 11.11° C | 56% | 1012.4 hPa | 0 mm | - | - | - |
| 1778229312 | 11.67° C | 56% | 1012.3 hPa | 0 mm | - | - | - |
| 1778228745 | 11.67° C | 54% | 1012.3 hPa | 0 mm | - | - | - |
| 1778227717 | 11.67° C | 54% | 1012.2 hPa | 0 mm | - | - | - |
| 1778227217 | 11.67° C | 54% | 1012.2 hPa | 0 mm | - | - | - |
| 1778226727 | 11.67° C | 54% | 1012.2 hPa | 0 mm | - | - | - |
| 1778226177 | 12.22° C | 54% | 1012.5 hPa | 0 mm | - | - | - |
| 1778225687 | 12.22° C | 55% | 1012.3 hPa | 0 mm | - | - | - |
* Rain latest hour (hover to see other rain measurements)
** Current wind speed in m/s (hover to see current wind gust speed)